createdAt,value
2023-10-04T06:27:23.033Z,101696.97
2023-10-04T06:29:51.865Z,101687.16
2023-10-04T06:32:19.435Z,101695.50
2023-10-04T06:34:45.865Z,101714.50
2023-10-04T06:37:12.262Z,101695.53
2023-10-04T06:39:38.744Z,101705.97
2023-10-04T06:42:05.641Z,101703.84
2023-10-04T06:44:32.207Z,101702.97
2023-10-04T06:46:59.126Z,101703.41
2023-10-04T06:49:25.526Z,101725.44
2023-10-04T06:51:52.149Z,101717.94
2023-10-04T06:54:18.999Z,101732.00
2023-10-04T06:56:45.899Z,101731.63
2023-10-04T06:59:12.435Z,101735.84
2023-10-04T07:01:38.956Z,101738.97
2023-10-04T07:04:05.677Z,101731.31
2023-10-04T07:06:34.007Z,101741.75
2023-10-04T07:09:00.841Z,101749.34
2023-10-04T07:11:28.248Z,101735.44
2023-10-04T07:13:55.858Z,101750.22
2023-10-04T07:16:22.302Z,101743.63
2023-10-04T07:18:49.934Z,101745.94
2023-10-04T07:21:16.524Z,101747.91
2023-10-04T07:23:43.724Z,101749.69
2023-10-04T07:26:10.708Z,101756.28
2023-10-04T07:28:39.440Z,101757.59
2023-10-04T07:31:05.981Z,101763.72
2023-10-04T07:33:32.523Z,101772.81
2023-10-04T07:35:58.966Z,101768.81
2023-10-04T07:38:25.383Z,101760.66
2023-10-04T07:40:51.799Z,101791.69
2023-10-04T07:43:18.308Z,101760.56
2023-10-04T07:45:46.305Z,101762.69
2023-10-04T07:48:16.531Z,101768.66
2023-10-04T07:50:43.283Z,101763.72
2023-10-04T07:53:09.802Z,101762.34
2023-10-04T07:55:37.858Z,101762.53
2023-10-04T07:58:05.719Z,101771.75
2023-10-04T08:00:34.787Z,101768.34
2023-10-04T08:03:02.459Z,101770.38
2023-10-04T08:05:32.403Z,101775.25
2023-10-04T08:08:03.956Z,101779.84
2023-10-04T08:10:37.202Z,101774.88
2023-10-04T08:13:06.150Z,101796.50
2023-10-04T08:15:36.594Z,101772.03
2023-10-04T08:18:05.330Z,101782.69
2023-10-04T08:20:34.512Z,101782.66
2023-10-04T08:23:03.741Z,101790.16
2023-10-04T08:25:30.746Z,101785.31
2023-10-04T08:27:58.223Z,101804.34
2023-10-04T08:30:25.961Z,101815.63
2023-10-04T08:32:53.957Z,101811.41
2023-10-04T08:35:25.116Z,101804.19
2023-10-04T08:38:05.365Z,101803.88
2023-10-04T08:40:32.948Z,101799.47
2023-10-04T08:43:00.056Z,101796.41
2023-10-04T08:45:31.643Z,101806.19
2023-10-04T08:47:58.785Z,101818.06
2023-10-04T08:50:39.747Z,101798.56
2023-10-04T08:53:33.899Z,101826.63
2023-10-04T08:56:10.930Z,101814.53
2023-10-04T08:58:39.539Z,101810.97
2023-10-04T09:01:08.125Z,101804.94
2023-10-04T09:03:37.205Z,101806.81
2023-10-04T09:06:06.255Z,101842.94
2023-10-04T09:08:32.741Z,101814.44
2023-10-04T09:10:59.459Z,101833.56
2023-10-04T09:13:26.418Z,101824.41
2023-10-04T09:15:53.052Z,101844.16
2023-10-04T09:18:29.543Z,101817.34
2023-10-04T09:20:56.270Z,101837.28
2023-10-04T09:23:26.100Z,101833.25
2023-10-04T09:25:56.683Z,101842.81
2023-10-04T09:28:40.805Z,101837.84
2023-10-04T09:31:14.397Z,101833.31
2023-10-04T09:33:41.960Z,101835.25
2023-10-04T09:36:11.634Z,101823.56
2023-10-04T09:38:39.137Z,101826.03
2023-10-04T09:41:05.559Z,101830.41
2023-10-04T09:43:36.974Z,101834.13
2023-10-04T09:46:13.857Z,101828.56
2023-10-04T09:48:44.900Z,101826.88
2023-10-04T09:51:11.856Z,101821.03
2023-10-04T09:53:42.336Z,101818.69
2023-10-04T09:56:12.902Z,101824.22
2023-10-04T09:58:50.248Z,101836.75
2023-10-04T10:01:21.003Z,101860.69
2023-10-04T10:03:54.355Z,101844.84
2023-10-04T10:06:23.955Z,101845.44
2023-10-04T10:08:54.200Z,101864.47
2023-10-04T10:11:21.118Z,101870.31
2023-10-04T10:13:50.608Z,101863.63
2023-10-04T10:16:20.646Z,101869.53
2023-10-04T10:18:50.722Z,101866.94
2023-10-04T10:21:17.223Z,101853.31
2023-10-04T10:23:57.167Z,101851.94
2023-10-04T10:26:24.398Z,101852.66
2023-10-04T10:29:00.634Z,101864.91
2023-10-04T10:31:28.099Z,101862.34
2023-10-04T10:33:57.977Z,101866.72
2023-10-04T10:36:26.366Z,101872.50
2023-10-04T10:38:53.766Z,101876.41
2023-10-04T10:41:29.287Z,101874.66
2023-10-04T10:44:14.949Z,101872.44
2023-10-04T10:46:58.816Z,101870.19
2023-10-04T10:49:37.432Z,101874.53
2023-10-04T10:52:04.314Z,101864.41
2023-10-04T10:54:30.809Z,101870.25
2023-10-04T10:56:57.242Z,101872.47
2023-10-04T10:59:23.653Z,101871.22
2023-10-04T11:01:50.174Z,101856.59
2023-10-04T11:04:17.781Z,101859.38
2023-10-04T11:06:44.668Z,101862.41
2023-10-04T11:09:11.161Z,101859.50
2023-10-04T11:11:38.308Z,101856.34
2023-10-04T11:14:06.807Z,101862.31
2023-10-04T11:16:35.196Z,101867.34
2023-10-04T11:19:05.721Z,101863.00
2023-10-04T11:21:32.272Z,101869.00
2023-10-04T11:24:02.664Z,101873.91
2023-10-04T11:26:29.949Z,101874.53
2023-10-04T11:28:58.142Z,101874.03
2023-10-04T11:31:27.224Z,101886.81
2023-10-04T11:33:58.218Z,101889.28
2023-10-04T11:36:24.892Z,101875.75
2023-10-04T11:38:52.102Z,101880.94
2023-10-04T11:41:20.506Z,101874.72
2023-10-04T11:43:47.647Z,101873.78
2023-10-04T11:46:14.234Z,101869.81
2023-10-04T11:48:40.778Z,101872.16
2023-10-04T11:51:07.448Z,101868.09
2023-10-04T11:53:35.769Z,101862.28
2023-10-04T11:56:07.913Z,101873.03
2023-10-04T11:58:47.205Z,101865.94
2023-10-04T12:01:23.623Z,101864.81
2023-10-04T12:03:51.475Z,101865.50
2023-10-04T12:06:28.052Z,101867.75
2023-10-04T12:08:55.603Z,101877.50
2023-10-04T12:11:26.598Z,101879.47
2023-10-04T12:13:53.582Z,101868.16
2023-10-04T12:16:20.010Z,101873.41
2023-10-04T12:18:46.791Z,101870.66
2023-10-04T12:21:13.892Z,101867.66
2023-10-04T12:23:40.368Z,101856.59
2023-10-04T12:26:07.188Z,101867.25
2023-10-04T12:28:33.720Z,101853.13
2023-10-04T12:31:03.482Z,101854.03
2023-10-04T12:33:35.797Z,101855.19
2023-10-04T12:36:03.626Z,101859.66
2023-10-04T12:38:30.269Z,101853.56
2023-10-04T12:40:56.804Z,101855.00
2023-10-04T12:43:24.454Z,101853.53
2023-10-04T12:45:54.727Z,101859.59
2023-10-04T12:48:21.614Z,101851.59
2023-10-04T12:50:48.072Z,101852.19
2023-10-04T12:53:15.899Z,101845.03
2023-10-04T12:55:46.497Z,101838.94
2023-10-04T12:58:13.117Z,101849.00
2023-10-04T13:00:39.700Z,101854.06
2023-10-04T13:03:06.326Z,101852.13
2023-10-04T13:05:34.275Z,101841.81
2023-10-04T13:08:00.734Z,101832.09
2023-10-04T13:10:27.222Z,101836.59
2023-10-04T13:12:53.817Z,101821.72
2023-10-04T13:15:20.746Z,101828.28
2023-10-04T13:17:47.810Z,101826.94
2023-10-04T13:20:18.620Z,101830.03
2023-10-04T13:22:46.186Z,101825.91
2023-10-04T13:25:13.542Z,101830.31
2023-10-04T13:27:40.642Z,101826.03
2023-10-04T13:30:07.769Z,101837.38
2023-10-04T13:32:35.368Z,101826.09
2023-10-04T13:35:02.936Z,101828.91
2023-10-04T13:37:29.361Z,101834.22
2023-10-04T13:39:56.945Z,101815.25
2023-10-04T13:44:52.910Z,101814.66
2023-10-04T13:47:21.281Z,101818.19
2023-10-04T13:49:48.308Z,101816.13
2023-10-04T13:52:15.821Z,101820.63
2023-10-04T13:54:44.227Z,101825.06
2023-10-04T13:57:11.854Z,101816.59
2023-10-04T13:59:38.391Z,101822.81
2023-10-04T14:02:06.865Z,101813.66
2023-10-04T14:04:33.773Z,101819.63
2023-10-04T14:07:00.264Z,101809.03
2023-10-04T14:09:26.776Z,101818.00
2023-10-04T14:11:53.258Z,101812.97
2023-10-04T14:14:19.698Z,101807.97
2023-10-04T14:16:49.328Z,101810.81
2023-10-04T14:19:15.947Z,101809.31
2023-10-04T14:21:42.424Z,101817.47
2023-10-04T14:24:08.985Z,101807.66
2023-10-04T14:26:35.523Z,101819.53
2023-10-04T14:29:01.955Z,101813.59
2023-10-04T14:31:28.717Z,101819.31
2023-10-04T14:33:55.521Z,101821.97
2023-10-04T14:36:22.594Z,101807.56
2023-10-04T14:38:55.443Z,101801.66
2023-10-04T14:41:21.861Z,101802.09
2023-10-04T14:43:48.275Z,101813.97
2023-10-04T14:46:14.861Z,101791.84
2023-10-04T14:48:41.369Z,101801.47
2023-10-04T14:51:12.936Z,101809.88
2023-10-04T14:53:40.475Z,101799.97
2023-10-04T14:56:07.276Z,101794.41
2023-10-04T14:58:34.161Z,101803.59
2023-10-04T15:01:07.308Z,101799.69
2023-10-04T15:03:34.462Z,101808.25
2023-10-04T15:06:01.124Z,101804.13
2023-10-04T15:08:27.653Z,101799.66
2023-10-04T15:10:55.909Z,101806.09
2023-10-04T15:13:23.262Z,101805.03
2023-10-04T15:16:07.022Z,101795.28
2023-10-04T15:18:36.602Z,101798.31
2023-10-04T15:21:05.357Z,101796.28
2023-10-04T15:23:31.891Z,101800.09
2023-10-04T15:25:58.376Z,101802.34
2023-10-04T15:28:25.620Z,101811.09
2023-10-04T15:30:53.470Z,101803.06
2023-10-04T15:33:19.909Z,101807.44
2023-10-04T15:35:46.918Z,101805.56
2023-10-04T15:38:13.344Z,101808.00
2023-10-04T15:40:41.009Z,101803.47
2023-10-04T15:43:09.278Z,101807.34
2023-10-04T15:45:36.085Z,101806.22
2023-10-04T15:48:12.506Z,101810.03
2023-10-04T15:50:39.690Z,101809.06
2023-10-04T15:53:07.141Z,101812.47
2023-10-04T15:55:34.616Z,101809.28
2023-10-04T15:58:02.019Z,101810.72
2023-10-04T16:00:34.555Z,101813.50
2023-10-04T16:03:02.693Z,101813.72
2023-10-04T16:05:30.106Z,101820.84
2023-10-04T16:07:59.878Z,101825.84
2023-10-04T16:10:27.182Z,101828.19
2023-10-04T16:12:56.126Z,101821.09
2023-10-04T16:15:22.945Z,101824.63
2023-10-04T16:17:49.709Z,101825.22
2023-10-04T16:20:16.719Z,101823.16
2023-10-04T16:22:44.282Z,101816.69
2023-10-04T16:25:15.123Z,101812.31
2023-10-04T16:27:45.732Z,101818.38
2023-10-04T16:30:15.757Z,101812.09
2023-10-04T16:32:47.631Z,101811.97
2023-10-04T16:35:17.938Z,101810.72
2023-10-04T16:37:44.833Z,101808.97
2023-10-04T16:40:14.265Z,101817.69
2023-10-04T16:42:45.058Z,101817.47
2023-10-04T16:45:13.780Z,101811.34
2023-10-04T16:47:42.704Z,101815.53
2023-10-04T16:50:09.441Z,101820.66
2023-10-04T16:52:35.864Z,101817.13
2023-10-04T16:55:04.849Z,101818.53
2023-10-04T16:57:31.476Z,101817.06
2023-10-04T16:59:58.017Z,101822.13
2023-10-04T17:02:24.546Z,101827.34
2023-10-04T17:04:51.350Z,101828.75
2023-10-04T17:07:17.903Z,101826.25
2023-10-04T17:09:45.601Z,101831.50
2023-10-04T17:12:12.080Z,101825.28
2023-10-04T17:14:40.391Z,101820.59
2023-10-04T17:17:08.185Z,101828.69
2023-10-04T17:19:34.614Z,101817.28
2023-10-04T17:22:01.085Z,101822.44
2023-10-04T17:24:29.856Z,101816.22
2023-10-04T17:26:56.412Z,101816.22
2023-10-04T17:29:22.910Z,101810.06
2023-10-04T17:31:49.539Z,101811.59
2023-10-04T17:34:16.081Z,101811.66
2023-10-04T17:36:42.654Z,101802.81
2023-10-04T17:39:09.360Z,101805.03
2023-10-04T17:41:35.855Z,101802.59
2023-10-04T17:44:02.413Z,101808.53
2023-10-04T17:46:28.946Z,101810.38
2023-10-04T17:48:55.470Z,101808.72
2023-10-04T17:51:22.022Z,101805.84
2023-10-04T17:53:48.454Z,101812.09
2023-10-04T17:56:15.000Z,101811.31
2023-10-04T17:58:43.916Z,101808.69
2023-10-04T18:01:10.848Z,101812.00
2023-10-04T18:03:38.371Z,101810.28
2023-10-04T18:06:08.098Z,101810.28
2023-10-04T18:08:35.022Z,101811.16
2023-10-04T18:11:01.606Z,101818.03
2023-10-04T18:13:29.039Z,101818.19
2023-10-04T18:15:57.731Z,101814.44
2023-10-04T18:18:24.404Z,101813.66
2023-10-04T18:20:50.995Z,101813.41
2023-10-04T18:23:20.165Z,101816.94
2023-10-04T18:25:46.632Z,101822.13
2023-10-04T18:28:14.752Z,101816.81
2023-10-04T18:30:41.452Z,101820.47
2023-10-04T18:33:08.262Z,101818.53
2023-10-04T18:35:36.086Z,101824.72
2023-10-04T18:38:02.558Z,101820.28
2023-10-04T18:40:29.235Z,101824.56
2023-10-04T18:42:55.737Z,101822.91
2023-10-04T18:45:24.084Z,101822.72
2023-10-04T18:47:50.697Z,101822.78
2023-10-04T18:50:18.618Z,101827.00
2023-10-04T18:52:47.230Z,101831.44
2023-10-04T18:55:17.128Z,101825.25
2023-10-04T18:57:45.610Z,101820.81
2023-10-04T19:00:15.764Z,101819.13
2023-10-04T19:02:46.763Z,101815.66
2023-10-04T19:05:13.763Z,101813.84
2023-10-04T19:07:40.362Z,101816.47
2023-10-04T19:10:09.529Z,101818.13
2023-10-04T19:12:37.121Z,101816.34
2023-10-04T19:15:05.586Z,101807.41
2023-10-04T19:17:32.483Z,101806.78
2023-10-04T19:19:59.244Z,101816.34
2023-10-04T19:22:25.694Z,101802.41
2023-10-04T19:24:52.209Z,101815.50
2023-10-04T19:27:18.665Z,101806.72
2023-10-04T19:29:45.085Z,101809.28
2023-10-04T19:32:11.703Z,101814.53
2023-10-04T19:34:38.124Z,101813.56
2023-10-04T19:37:04.622Z,101811.75
2023-10-04T19:39:31.110Z,101825.69
2023-10-04T19:41:57.563Z,101818.72
2023-10-04T19:44:23.998Z,101821.25
2023-10-04T19:46:51.579Z,101809.75
2023-10-04T19:49:18.116Z,101799.25
2023-10-04T19:51:44.560Z,101797.44
2023-10-04T19:54:11.101Z,101799.88
2023-10-04T19:56:37.949Z,101790.25
2023-10-04T19:59:04.436Z,101794.94
2023-10-04T20:01:31.044Z,101793.72
2023-10-04T20:03:58.454Z,101796.16
2023-10-04T20:06:24.978Z,101790.81
2023-10-04T20:08:51.420Z,101786.59
2023-10-04T20:11:18.747Z,101791.78
2023-10-04T20:13:45.534Z,101784.03
2023-10-04T20:16:12.370Z,101780.28
2023-10-04T20:18:38.894Z,101779.13
2023-10-04T20:21:05.890Z,101782.84
2023-10-04T20:23:35.664Z,101772.28
2023-10-04T20:26:08.704Z,101780.28
2023-10-04T20:28:35.145Z,101778.50
2023-10-04T20:31:03.365Z,101778.28
2023-10-04T20:33:29.794Z,101779.94
2023-10-04T20:35:56.214Z,101779.00
2023-10-04T20:38:22.633Z,101781.53
2023-10-04T20:40:49.095Z,101779.00
2023-10-04T20:43:15.512Z,101771.22
2023-10-04T20:45:42.017Z,101779.88
2023-10-04T20:48:08.643Z,101770.28
2023-10-04T20:50:35.701Z,101762.25
2023-10-04T20:53:03.711Z,101763.09
2023-10-04T20:55:30.270Z,101763.75
2023-10-04T20:57:56.823Z,101757.53
2023-10-04T21:00:23.367Z,101750.75
2023-10-04T21:02:49.915Z,101749.00
2023-10-04T21:05:16.540Z,101755.72
2023-10-04T21:07:42.989Z,101755.41
2023-10-04T21:10:12.537Z,101745.00
2023-10-04T21:12:39.267Z,101740.19
2023-10-04T21:15:06.202Z,101739.00
2023-10-04T21:17:32.847Z,101731.31
2023-10-04T21:19:59.648Z,101736.47
2023-10-04T21:22:26.074Z,101726.69
2023-10-04T21:24:52.893Z,101733.38
2023-10-04T21:27:23.787Z,101730.75
2023-10-04T21:29:51.175Z,101731.38
2023-10-04T21:32:24.205Z,101730.50
2023-10-04T21:34:50.987Z,101727.88
2023-10-04T21:37:17.425Z,101728.19
2023-10-04T21:39:48.251Z,101727.84
2023-10-04T21:42:16.600Z,101728.50
2023-10-04T21:44:43.093Z,101720.81
2023-10-04T21:47:17.737Z,101713.81
2023-10-04T21:49:46.552Z,101720.72
2023-10-04T21:52:23.520Z,101718.84
2023-10-04T21:54:49.991Z,101717.00
2023-10-04T21:57:16.680Z,101719.97
2023-10-04T21:59:43.153Z,101707.00
2023-10-04T22:02:13.816Z,101707.00
